TimePDT,TemperatureF,Dew PointF,Humidity,Sea Level PressureIn,VisibilityMPH,Wind Direction,Wind SpeedMPH,Gust SpeedMPH,PrecipitationIn,Events,Conditions,WindDirDegrees,DateUTC
12:53 AM,46.0,41.0,83,30.13,10.0,ENE,6.9,-,N/A,,Clear,70,2013-10-24 07:53:00
1:53 AM,45.0,41.0,86,30.12,10.0,ENE,8.1,-,N/A,,Partly Cloudy,60,2013-10-24 08:53:00
2:53 AM,43.0,39.9,89,30.12,9.0,ENE,8.1,-,N/A,,Partly Cloudy,60,2013-10-24 09:53:00
3:53 AM,41.0,39.9,96,30.12,5.0,ENE,4.6,-,N/A,,Partly Cloudy,60,2013-10-24 10:53:00
4:33 AM,41.0,39.2,93,30.11,1.8,ENE,6.9,-,N/A,,Scattered Clouds,60,2013-10-24 11:33:00
4:35 AM,41.0,39.2,93,30.11,0.5,ENE,8.1,-,N/A,Fog,Fog,60,2013-10-24 11:35:00
4:53 AM,41.0,39.9,96,30.12,0.2,ENE,9.2,-,N/A,Fog,Fog,70,2013-10-24 11:53:00
5:53 AM,42.1,41.0,96,30.13,0.2,ENE,6.9,-,N/A,Fog,Fog,70,2013-10-24 12:53:00
6:53 AM,42.1,41.0,96,30.13,0.2,NE,10.4,-,N/A,Fog,Fog,50,2013-10-24 13:53:00
7:17 AM,42.8,41.0,93,30.12,0.1,NE,9.2,-,N/A,Fog,Fog,50,2013-10-24 14:17:00
7:53 AM,42.1,41.0,96,30.15,0.1,NE,9.2,-,N/A,Fog,Fog,50,2013-10-24 14:53:00
8:53 AM,42.1,41.0,96,30.16,0.2,ENE,6.9,-,N/A,Fog,Fog,60,2013-10-24 15:53:00
9:08 AM,42.8,41.0,93,30.14,0.5,ENE,6.9,-,N/A,Fog,Fog,60,2013-10-24 16:08:00
9:53 AM,43.0,42.1,97,30.17,0.5,NE,5.8,-,N/A,,Overcast,50,2013-10-24 16:53:00
10:13 AM,42.8,42.8,100,30.15,2.0,NE,6.9,-,N/A,,Overcast,50,2013-10-24 17:13:00
10:53 AM,44.1,42.1,93,30.17,4.0,NE,5.8,-,N/A,,Mostly Cloudy,40,2013-10-24 17:53:00
11:05 AM,46.4,42.8,87,30.14,6.0,NE,5.8,-,N/A,,Mostly Cloudy,40,2013-10-24 18:05:00
11:27 AM,46.4,42.8,87,30.14,8.0,NNE,5.8,-,N/A,Fog,Scattered Clouds,30,2013-10-24 18:27:00
11:53 AM,48.9,42.1,77,30.16,10.0,NNE,4.6,-,N/A,,Partly Cloudy,30,2013-10-24 18:53:00
12:53 PM,53.1,42.1,66,30.13,10.0,Calm,Calm,-,N/A,,Partly Cloudy,0,2013-10-24 19:53:00
1:53 PM,57.0,42.1,57,30.11,10.0,ENE,5.8,-,N/A,,Partly Cloudy,60,2013-10-24 20:53:00
2:53 PM,59.0,41.0,51,30.11,10.0,Calm,Calm,-,N/A,,Partly Cloudy,0,2013-10-24 21:53:00
3:53 PM,60.8,41.0,48,30.11,10.0,Calm,Calm,-,N/A,,Partly Cloudy,0,2013-10-24 22:53:00
4:53 PM,60.8,39.2,45,30.09,10.0,Calm,Calm,-,N/A,,Partly Cloudy,0,2013-10-24 23:53:00
5:53 PM,55.4,41.0,58,30.10,10.0,Calm,Calm,-,N/A,,Partly Cloudy,0,2013-10-25 00:53:00
6:53 PM,53.1,39.9,61,30.11,10.0,Calm,Calm,-,N/A,,Clear,0,2013-10-25 01:53:00
7:53 PM,46.9,37.9,71,30.12,10.0,Calm,Calm,-,N/A,,Clear,0,2013-10-25 02:53:00
8:53 PM,42.1,36.0,79,30.14,10.0,SW,3.5,-,N/A,,Clear,230,2013-10-25 03:53:00
9:53 PM,39.9,34.0,79,30.14,10.0,Calm,Calm,-,N/A,,Clear,0,2013-10-25 04:53:00
10:53 PM,42.1,37.0,82,30.15,10.0,Calm,Calm,-,N/A,,Clear,0,2013-10-25 05:53:00
11:53 PM,42.1,39.0,89,30.16,10.0,NNE,3.5,-,N/A,,Partly Cloudy,30,2013-10-25 06:53:00